Time;durP1;ratioP1;P1;durP2;ratioP2;P2;SDS_P1;SDS_P2;PMS_P1;PMS_P2;Temp;Humidity;BMP_temperature;BMP_pressure;BME280_temperature;BME280_humidity;BME280_pressure;Samples;Min_cycle;Max_cycle;Signal;HPM_P1;HPM_P2
2022/04/09 00:01:49;;;;;;;4.25;2.15;;;;;;;;;;5055526;28;20048;-65
2022/04/09 00:04:15;;;;;;;5.57;2.22;;;;;;;;;;5055697;28;20041;-65
2022/04/09 00:06:41;;;;;;;3.42;1.77;;;;;;;;;;5055467;28;20076;-65
2022/04/09 00:09:07;;;;;;;3.95;1.85;;;;;;;;;;5054867;28;20048;-65
2022/04/09 00:11:33;;;;;;;5.35;1.65;;;;;;;;;;5055128;28;20094;-66
2022/04/09 00:13:59;;;;;;;3.35;1.70;;;;;;;;;;5055353;28;20045;-65
2022/04/09 00:16:25;;;;;;;4.47;1.70;;;;;;;;;;5055072;28;20492;-65
2022/04/09 00:18:51;;;;;;;4.25;1.70;;;;;;;;;;5055098;28;20044;-65
2022/04/09 00:21:16;;;;;;;3.47;1.75;;;;;;;;;;5055069;28;20037;-65
2022/04/09 00:23:43;;;;;;;2.95;1.65;;;;;;;;;;5054998;28;20037;-65
2022/04/09 00:26:09;;;;;;;4.10;1.85;;;;;;;;;;5055199;28;20041;-66
2022/04/09 00:28:35;;;;;;;3.60;1.67;;;;;;;;;;5055019;28;20063;-65
2022/04/09 00:31:01;;;;;;;3.33;1.55;;;;;;;;;;5055342;28;20052;-65
2022/04/09 00:33:27;;;;;;;3.30;1.85;;;;;;;;;;5054996;28;20091;-65
2022/04/09 00:35:53;;;;;;;3.80;1.73;;;;;;;;;;5054951;28;20128;-65
2022/04/09 00:38:19;;;;;;;3.85;1.83;;;;;;;;;;5054448;28;20128;-65
2022/04/09 00:40:45;;;;;;;3.10;1.70;;;;;;;;;;5054983;28;20041;-65
2022/04/09 00:43:11;;;;;;;2.60;1.60;;;;;;;;;;5055404;28;20368;-65
2022/04/09 00:45:37;;;;;;;3.40;1.73;;;;;;;;;;5054572;28;20090;-65
2022/04/09 00:48:05;;;;;;;2.75;1.73;;;;;;;;;;5054641;28;20037;-65
2022/04/09 00:50:31;;;;;;;2.97;1.80;;;;;;;;;;5054757;28;20120;-65
2022/04/09 00:53:01;;;;;;;4.45;1.83;;;;;;;;;;5054263;28;20143;-65
2022/04/09 00:58:14;;;;;;;3.28;1.70;;;;;;;;;;5054539;28;20041;-65
2022/04/09 01:00:41;;;;;;;3.03;1.55;;;;;;;;;;5054183;28;20045;-65
2022/04/09 01:03:08;;;;;;;2.20;1.58;;;;;;;;;;5054281;28;20048;-66
2022/04/09 01:05:34;;;;;;;2.58;1.77;;;;;;;;;;5054357;28;20090;-66
2022/04/09 01:08:01;;;;;;;2.13;1.60;;;;;;;;;;5054404;28;20102;-66
2022/04/09 01:10:27;;;;;;;2.22;1.52;;;;;;;;;;5054013;28;20378;-66
2022/04/09 01:12:53;;;;;;;3.42;1.80;;;;;;;;;;5053818;28;20105;-66
2022/04/09 01:15:19;;;;;;;2.83;1.70;;;;;;;;;;5053458;28;20049;-65
2022/04/09 01:17:45;;;;;;;2.97;1.70;;;;;;;;;;5053594;28;20381;-66
2022/04/09 01:20:21;;;;;;;4.03;1.77;;;;;;;;;;5054009;28;20105;-66
2022/04/09 01:22:47;;;;;;;2.85;1.67;;;;;;;;;;5053629;28;20064;-65
2022/04/09 01:25:13;;;;;;;2.03;1.40;;;;;;;;;;5054117;28;20064;-65
2022/04/09 01:27:39;;;;;;;3.05;1.60;;;;;;;;;;5053891;28;20496;-65
2022/04/09 01:30:05;;;;;;;3.40;1.73;;;;;;;;;;5054037;28;20041;-66
2022/04/09 01:32:31;;;;;;;3.53;1.50;;;;;;;;;;5053866;28;20052;-66
2022/04/09 01:35:00;;;;;;;2.72;1.65;;;;;;;;;;5052733;28;20045;-66
2022/04/09 01:37:26;;;;;;;2.85;1.65;;;;;;;;;;5053522;28;20057;-66
2022/04/09 01:39:52;;;;;;;2.92;1.63;;;;;;;;;;5053784;28;20071;-66
2022/04/09 01:42:21;;;;;;;2.25;1.48;;;;;;;;;;5053301;28;20488;-66
2022/04/09 01:44:47;;;;;;;3.47;1.70;;;;;;;;;;5053392;28;20045;-66
2022/04/09 01:47:13;;;;;;;3.40;1.73;;;;;;;;;;5053769;28;20439;-66
2022/04/09 01:49:39;;;;;;;3.22;1.40;;;;;;;;;;5053771;28;20045;-66
2022/04/09 01:52:05;;;;;;;2.65;1.50;;;;;;;;;;5053572;28;20077;-65
2022/04/09 01:54:31;;;;;;;2.97;1.90;;;;;;;;;;5053380;28;20123;-65
2022/04/09 01:56:57;;;;;;;3.95;1.60;;;;;;;;;;5053004;28;20052;-66
2022/04/09 01:59:23;;;;;;;2.78;1.60;;;;;;;;;;5053277;28;20037;-66
2022/04/09 02:01:49;;;;;;;2.47;1.40;;;;;;;;;;5053332;28;20489;-66
2022/04/09 02:04:15;;;;;;;2.90;1.65;;;;;;;;;;5053259;28;20055;-65
2022/04/09 02:06:45;;;;;;;3.03;1.60;;;;;;;;;;5053244;28;20053;-65
2022/04/09 02:09:11;;;;;;;2.05;1.60;;;;;;;;;;5053010;28;20045;-66
2022/04/09 02:11:41;;;;;;;2.38;1.45;;;;;;;;;;5052959;28;20127;-65
2022/04/09 02:14:11;;;;;;;2.75;1.65;;;;;;;;;;5053049;28;20183;-66
2022/04/09 02:16:37;;;;;;;2.63;1.60;;;;;;;;;;5052888;28;20049;-65
2022/04/09 02:19:04;;;;;;;2.53;1.48;;;;;;;;;;5053195;28;20041;-65
2022/04/09 02:21:30;;;;;;;3.08;1.60;;;;;;;;;;5053255;28;20051;-65
2022/04/09 02:23:56;;;;;;;2.30;1.38;;;;;;;;;;5053058;28;20041;-65
2022/04/09 02:26:22;;;;;;;2.35;1.30;;;;;;;;;;5053094;28;20041;-65
2022/04/09 02:28:49;;;;;;;2.58;1.52;;;;;;;;;;5052753;28;20461;-66
2022/04/09 02:31:17;;;;;;;2.03;1.42;;;;;;;;;;5052773;28;20053;-66
2022/04/09 02:33:44;;;;;;;3.45;1.45;;;;;;;;;;5052927;28;20041;-65
2022/04/09 02:36:12;;;;;;;2.80;1.67;;;;;;;;;;5052801;28;20087;-66
2022/04/09 02:38:38;;;;;;;2.78;1.40;;;;;;;;;;5052645;28;20048;-66
2022/04/09 02:41:04;;;;;;;2.33;1.33;;;;;;;;;;5052344;28;20492;-66
2022/04/09 02:43:30;;;;;;;2.97;1.60;;;;;;;;;;5053112;28;20068;-65
2022/04/09 02:45:57;;;;;;;1.85;1.45;;;;;;;;;;5052600;28;20068;-66
2022/04/09 02:48:23;;;;;;;2.53;1.50;;;;;;;;;;5052628;28;20461;-66
2022/04/09 02:50:49;;;;;;;3.53;1.60;;;;;;;;;;5052616;28;20049;-66
2022/04/09 02:53:15;;;;;;;2.58;1.52;;;;;;;;;;5052630;28;20510;-65
2022/04/09 02:55:41;;;;;;;2.47;1.40;;;;;;;;;;5052811;28;20079;-66
2022/04/09 02:58:07;;;;;;;2.63;1.52;;;;;;;;;;5052765;28;20100;-66
2022/04/09 03:00:34;;;;;;;2.83;1.45;;;;;;;;;;5052850;28;20041;-65
2022/04/09 03:03:00;;;;;;;2.05;1.40;;;;;;;;;;5052567;28;20049;-65
2022/04/09 03:05:26;;;;;;;2.72;1.40;;;;;;;;;;5052573;28;20072;-65
2022/04/09 03:07:52;;;;;;;3.05;1.38;;;;;;;;;;5034417;28;20532;-65
2022/04/09 03:10:18;;;;;;;2.67;1.30;;;;;;;;;;5052746;28;20045;-66
2022/04/09 03:12:44;;;;;;;2.63;1.38;;;;;;;;;;5052633;28;20044;-66
2022/04/09 03:15:10;;;;;;;2.33;1.52;;;;;;;;;;5052643;28;20041;-65
2022/04/09 03:17:36;;;;;;;2.70;1.40;;;;;;;;;;5052554;28;20044;-65
2022/04/09 03:20:03;;;;;;;2.75;1.63;;;;;;;;;;5052172;28;20045;-65
2022/04/09 03:22:30;;;;;;;1.83;1.25;;;;;;;;;;5052421;28;20055;-65
2022/04/09 03:24:57;;;;;;;2.40;1.40;;;;;;;;;;5052371;28;20067;-66
2022/04/09 03:27:23;;;;;;;2.42;1.50;;;;;;;;;;5052389;28;20049;-66
2022/04/09 03:29:49;;;;;;;2.78;1.48;;;;;;;;;;5052214;28;20045;-65
2022/04/09 03:32:15;;;;;;;2.50;1.40;;;;;;;;;;5051877;28;20098;-66
2022/04/09 03:34:42;;;;;;;3.13;1.42;;;;;;;;;;5052703;28;20076;-66
2022/04/09 03:37:08;;;;;;;2.42;1.70;;;;;;;;;;5051734;28;20644;-66
2022/04/09 03:39:34;;;;;;;2.40;1.45;;;;;;;;;;5052294;28;20120;-66
2022/04/09 03:42:00;;;;;;;2.88;1.50;;;;;;;;;;5052493;28;20068;-66
2022/04/09 03:44:26;;;;;;;2.17;1.40;;;;;;;;;;5053110;28;20055;-66
2022/04/09 03:47:02;;;;;;;2.60;1.60;;;;;;;;;;5054710;28;20049;-66
2022/04/09 03:49:32;;;;;;;2.47;1.42;;;;;;;;;;5055932;28;20492;-66
2022/04/09 03:51:58;;;;;;;2.40;1.45;;;;;;;;;;5054144;28;20075;-66
2022/04/09 03:54:25;;;;;;;2.28;1.52;;;;;;;;;;5055896;28;20040;-66
2022/04/09 03:56:52;;;;;;;1.83;1.33;;;;;;;;;;5055782;28;20048;-66
2022/04/09 03:59:18;;;;;;;2.75;1.40;;;;;;;;;;5055748;28;20044;-66
2022/04/09 04:01:47;;;;;;;2.50;1.30;;;;;;;;;;5055352;28;20045;-66
2022/04/09 04:04:13;;;;;;;1.92;1.35;;;;;;;;;;5054279;28;20445;-66
2022/04/09 04:06:40;;;;;;;3.30;1.73;;;;;;;;;;5055173;28;20052;-66
2022/04/09 04:09:07;;;;;;;2.72;1.30;;;;;;;;;;5055051;28;20504;-66
2022/04/09 04:11:33;;;;;;;1.83;1.38;;;;;;;;;;5055620;28;20055;-66
2022/04/09 04:13:59;;;;;;;3.22;1.60;;;;;;;;;;5055389;28;20407;-66
2022/04/09 04:16:25;;;;;;;2.42;1.30;;;;;;;;;;5055305;28;20037;-66
2022/04/09 04:18:51;;;;;;;2.70;1.45;;;;;;;;;;5055302;28;20072;-66
2022/04/09 04:21:17;;;;;;;2.53;1.52;;;;;;;;;;5055093;28;20373;-66
2022/04/09 04:23:43;;;;;;;1.58;1.30;;;;;;;;;;5054912;28;20043;-66
2022/04/09 04:26:09;;;;;;;2.13;1.30;;;;;;;;;;5055375;28;20116;-66
2022/04/09 04:28:35;;;;;;;2.10;1.40;;;;;;;;;;5054771;28;20404;-66
2022/04/09 04:31:01;;;;;;;1.45;1.17;;;;;;;;;;5055110;28;20045;-66
2022/04/09 04:33:27;;;;;;;2.53;1.40;;;;;;;;;;5054994;28;20037;-66
2022/04/09 04:35:53;;;;;;;2.28;1.60;;;;;;;;;;5054658;28;20086;-66
2022/04/09 04:38:19;;;;;;;1.33;1.23;;;;;;;;;;5054557;28;20404;-66
2022/04/09 04:40:45;;;;;;;2.25;1.50;;;;;;;;;;5055004;28;20080;-66
2022/04/09 04:43:11;;;;;;;3.47;1.85;;;;;;;;;;5055061;28;20052;-66
2022/04/09 04:45:38;;;;;;;4.07;1.73;;;;;;;;;;5054695;28;20500;-66
2022/04/09 04:48:04;;;;;;;2.95;2.30;;;;;;;;;;5054975;28;20103;-66
2022/04/09 04:50:30;;;;;;;3.00;2.70;;;;;;;;;;5054412;28;20120;-66
2022/04/09 04:52:56;;;;;;;3.80;3.40;;;;;;;;;;5054903;28;20037;-66
2022/04/09 04:55:22;;;;;;;5.68;5.25;;;;;;;;;;5054907;28;20458;-66
2022/04/09 04:57:52;;;;;;;5.57;5.05;;;;;;;;;;5054262;28;20476;-66
2022/04/09 05:00:22;;;;;;;13.02;12.05;;;;;;;;;;5054447;28;20052;-66
2022/04/09 05:02:48;;;;;;;8.65;7.95;;;;;;;;;;5054188;28;20044;-67
2022/04/09 05:05:14;;;;;;;10.00;9.30;;;;;;;;;;5054792;28;20044;-66
2022/04/09 05:07:44;;;;;;;13.20;12.30;;;;;;;;;;5054081;28;20124;-67
2022/04/09 05:10:15;;;;;;;13.32;12.43;;;;;;;;;;5054759;28;20049;-66
2022/04/09 05:12:41;;;;;;;14.85;13.85;;;;;;;;;;5054427;28;20052;-66
2022/04/09 05:15:08;;;;;;;15.05;14.07;;;;;;;;;;5054268;28;20095;-66
2022/04/09 05:17:35;;;;;;;13.93;12.93;;;;;;;;;;5053957;28;20037;-67
2022/04/09 05:20:04;;;;;;;11.68;10.88;;;;;;;;;;5054317;28;20043;-67
2022/04/09 05:22:33;;;;;;;12.40;11.60;;;;;;;;;;5054444;28;20051;-67
2022/04/09 05:24:59;;;;;;;11.52;10.73;;;;;;;;;;5053847;28;20041;-66
2022/04/09 05:27:26;;;;;;;11.10;10.30;;;;;;;;;;5054056;28;20507;-67
2022/04/09 05:29:52;;;;;;;11.55;10.55;;;;;;;;;;5053872;28;20048;-67
2022/04/09 05:32:18;;;;;;;9.25;8.65;;;;;;;;;;5054082;28;20099;-67
2022/04/09 05:34:46;;;;;;;8.73;8.07;;;;;;;;;;5054215;28;20049;-66
2022/04/09 05:37:12;;;;;;;8.77;8.07;;;;;;;;;;5053117;28;20064;-66
2022/04/09 05:39:38;;;;;;;8.25;7.55;;;;;;;;;;5053826;28;20061;-66
2022/04/09 05:42:04;;;;;;;8.10;7.40;;;;;;;;;;5053660;28;20036;-66
2022/04/09 05:44:31;;;;;;;7.85;6.80;;;;;;;;;;5053641;28;20124;-65
2022/04/09 05:46:57;;;;;;;6.32;5.80;;;;;;;;;;5053902;28;20045;-66
2022/04/09 05:49:23;;;;;;;6.30;5.80;;;;;;;;;;5053651;28;20049;-66
2022/04/09 05:51:49;;;;;;;6.30;5.80;;;;;;;;;;5053019;28;20044;-68
2022/04/09 05:54:15;;;;;;;6.20;5.60;;;;;;;;;;5053555;28;20048;-68
2022/04/09 05:56:42;;;;;;;6.20;5.60;;;;;;;;;;5053670;28;20400;-66
2022/04/09 05:59:08;;;;;;;5.88;5.35;;;;;;;;;;5053342;28;20045;-67
2022/04/09 06:01:34;;;;;;;5.30;4.80;;;;;;;;;;5053456;28;20037;-67
2022/04/09 06:04:01;;;;;;;5.30;4.38;;;;;;;;;;5053221;28;20045;-67
2022/04/09 06:06:27;;;;;;;4.28;3.88;;;;;;;;;;5053225;28;20411;-67
2022/04/09 06:08:53;;;;;;;5.00;4.50;;;;;;;;;;5052012;28;20064;-67
2022/04/09 06:11:19;;;;;;;4.18;3.78;;;;;;;;;;5052880;28;20041;-67
2022/04/09 06:13:45;;;;;;;4.50;3.58;;;;;;;;;;5053031;28;20454;-66
2022/04/09 06:16:11;;;;;;;6.20;3.47;;;;;;;;;;5052957;28;20535;-67
2022/04/09 06:18:38;;;;;;;3.53;3.10;;;;;;;;;;5053272;28;20041;-66
2022/04/09 06:21:07;;;;;;;7.00;3.25;;;;;;;;;;5050604;28;20110;-66
2022/04/09 06:23:33;;;;;;;3.50;2.95;;;;;;;;;;5056631;28;20484;-65
2022/04/09 06:25:59;;;;;;;3.88;2.55;;;;;;;;;;5062773;28;20135;-67
2022/04/09 06:28:26;;;;;;;4.18;2.60;;;;;;;;;;5072959;28;20123;-65
2022/04/09 06:30:52;;;;;;;4.70;2.78;;;;;;;;;;5051733;28;20041;-65
2022/04/09 06:33:18;;;;;;;4.90;2.58;;;;;;;;;;5052932;28;20041;-66
2022/04/09 06:35:46;;;;;;;6.20;2.40;;;;;;;;;;5052252;28;20079;-66
2022/04/09 08:57:25;;;;;;;15.75;3.35;;;;;;;;;;5110688;27;1257503;-73
2022/04/09 08:59:53;;;;;;;13.20;3.63;;;;;;;;;;5141486;27;20537;-74
2022/04/09 09:02:20;;;;;;;15.68;3.45;;;;;;;;;;5151974;27;20057;-73
2022/04/09 09:04:46;;;;;;;18.42;4.07;;;;;;;;;;5152270;27;20054;-72
2022/04/09 09:07:22;;;;;;;16.55;3.95;;;;;;;;;;5133001;27;20100;-72
2022/04/09 09:09:48;;;;;;;19.70;4.38;;;;;;;;;;5152388;27;20093;-73
2022/04/09 09:12:26;;;;;;;19.92;4.13;;;;;;;;;;5151672;27;20536;-74
2022/04/09 09:14:52;;;;;;;16.80;4.18;;;;;;;;;;5153085;27;20119;-73
2022/04/09 09:17:26;;;;;;;16.63;4.20;;;;;;;;;;5151941;27;20079;-73
2022/04/09 09:19:52;;;;;;;22.08;4.28;;;;;;;;;;5152475;27;20099;-73
2022/04/09 09:22:21;;;;;;;18.35;4.13;;;;;;;;;;5159262;27;20130;-74
2022/04/09 09:25:07;;;;;;;20.45;3.92;;;;;;;;;;5161085;27;20039;-75
2022/04/09 09:27:33;;;;;;;15.03;3.60;;;;;;;;;;5151547;27;20057;-72
2022/04/09 09:29:59;;;;;;;13.93;3.80;;;;;;;;;;5145716;27;20491;-75
2022/04/09 09:32:26;;;;;;;16.20;3.78;;;;;;;;;;5142849;27;20046;-75
2022/04/09 09:34:56;;;;;;;28.20;6.63;;;;;;;;;;5153441;27;20075;-72
2022/04/09 09:37:24;;;;;;;26.02;5.68;;;;;;;;;;5139154;27;20072;-75
2022/04/09 09:39:50;;;;;;;22.92;4.93;;;;;;;;;;5162859;27;20517;-75
2022/04/09 09:42:19;;;;;;;21.85;6.03;;;;;;;;;;5154561;27;20054;-74
2022/04/09 09:44:46;;;;;;;23.58;5.45;;;;;;;;;;5151496;27;20077;-74
2022/04/09 09:47:15;;;;;;;32.63;6.55;;;;;;;;;;5152480;27;20031;-76
2022/04/09 09:49:47;;;;;;;20.60;5.70;;;;;;;;;;5118329;27;20043;-74
2022/04/09 09:52:14;;;;;;;16.95;5.32;;;;;;;;;;5150793;27;20030;-72
2022/04/09 09:54:56;;;;;;;19.52;4.97;;;;;;;;;;5152577;27;20070;-73
2022/04/09 09:57:23;;;;;;;21.42;5.45;;;;;;;;;;5160179;27;20055;-71
2022/04/09 09:59:51;;;;;;;17.38;4.97;;;;;;;;;;5158491;27;20083;-71
2022/04/09 10:02:23;;;;;;;16.05;4.22;;;;;;;;;;5151888;27;20049;-75
2022/04/09 10:04:50;;;;;;;11.88;4.18;;;;;;;;;;5151945;27;20168;-74
2022/04/09 10:07:16;;;;;;;17.80;3.85;;;;;;;;;;5147414;27;20051;-75
2022/04/09 10:09:42;;;;;;;12.48;3.83;;;;;;;;;;5137459;27;20054;-77
2022/04/09 10:12:12;;;;;;;18.73;4.28;;;;;;;;;;5138143;27;20071;-75
2022/04/09 10:14:40;;;;;;;18.02;4.10;;;;;;;;;;5139169;27;20045;-71
2022/04/09 10:17:07;;;;;;;12.73;3.67;;;;;;;;;;5140297;27;20043;-73
2022/04/09 10:19:40;;;;;;;13.25;4.10;;;;;;;;;;5139309;27;20047;-73
2022/04/09 10:22:07;;;;;;;11.82;3.30;;;;;;;;;;5137556;27;20051;-76
2022/04/09 10:24:33;;;;;;;12.50;3.33;;;;;;;;;;5137613;27;21157;-73
2022/04/09 10:27:02;;;;;;;14.98;4.18;;;;;;;;;;5137398;27;20490;-74
2022/04/09 10:29:46;;;;;;;14.27;3.80;;;;;;;;;;5126009;27;20043;-73
2022/04/09 10:32:13;;;;;;;11.68;3.17;;;;;;;;;;5120009;27;20196;-74
2022/04/09 10:34:50;;;;;;;12.13;3.60;;;;;;;;;;5138077;27;20173;-76
2022/04/09 10:37:16;;;;;;;13.05;3.45;;;;;;;;;;5139570;27;20046;-77
2022/04/09 10:39:45;;;;;;;16.73;3.72;;;;;;;;;;5138714;27;20039;-77
2022/04/09 10:42:30;;;;;;;12.00;3.67;;;;;;;;;;5138132;27;20039;-77
2022/04/09 10:44:56;;;;;;;14.45;3.78;;;;;;;;;;5137086;27;20397;-77
2022/04/09 10:47:22;;;;;;;34.22;6.03;;;;;;;;;;5137309;27;20039;-77
2022/04/09 10:50:01;;;;;;;42.25;6.18;;;;;;;;;;5135196;27;20039;-73
2022/04/09 10:52:28;;;;;;;35.08;6.35;;;;;;;;;;5136898;27;20075;-76
2022/04/09 10:55:13;;;;;;;45.03;6.72;;;;;;;;;;5139158;27;20505;-76
2022/04/09 10:57:46;;;;;;;41.53;7.03;;;;;;;;;;5137986;27;20564;-77
2022/04/09 11:00:33;;;;;;;32.33;5.85;;;;;;;;;;5139819;27;20039;-76
2022/04/09 11:03:11;;;;;;;53.72;8.75;;;;;;;;;;5123319;27;20047;-77
2022/04/09 11:05:41;;;;;;;47.72;8.15;;;;;;;;;;5117895;27;20043;-78
2022/04/09 11:08:20;;;;;;;59.00;8.05;;;;;;;;;;5137022;27;20110;-78
2022/04/09 11:10:46;;;;;;;43.83;7.15;;;;;;;;;;5116988;27;20439;-75
2022/04/09 11:13:13;;;;;;;38.10;6.68;;;;;;;;;;5117417;27;20043;-78
2022/04/09 11:15:45;;;;;;;48.80;7.88;;;;;;;;;;5135314;27;20047;-79
2022/04/09 11:18:11;;;;;;;51.35;7.78;;;;;;;;;;5117161;27;20043;-77
2022/04/09 11:20:38;;;;;;;53.90;7.57;;;;;;;;;;5099147;27;20074;-78
2022/04/09 11:23:19;;;;;;;53.95;8.05;;;;;;;;;;5116805;27;20046;-78
2022/04/09 11:25:46;;;;;;;39.70;5.93;;;;;;;;;;5135558;27;20046;-78
2022/04/09 11:28:14;;;;;;;42.42;6.43;;;;;;;;;;5135386;27;20035;-77
2022/04/09 11:30:53;;;;;;;30.83;5.15;;;;;;;;;;5117090;27;20043;-77
2022/04/09 11:33:23;;;;;;;42.42;6.43;;;;;;;;;;5135584;27;20051;-78
2022/04/09 11:35:49;;;;;;;32.05;5.68;;;;;;;;;;5136727;27;20070;-77
2022/04/09 11:38:16;;;;;;;29.73;5.43;;;;;;;;;;5135573;27;20039;-76
2022/04/09 11:40:48;;;;;;;29.48;4.93;;;;;;;;;;5134728;27;20051;-77
2022/04/09 11:43:15;;;;;;;30.00;5.25;;;;;;;;;;5134714;27;20035;-78
2022/04/09 11:45:41;;;;;;;23.65;4.35;;;;;;;;;;5135113;27;20489;-77
2022/04/09 11:48:07;;;;;;;25.13;4.82;;;;;;;;;;5116957;27;20121;-75
2022/04/09 11:50:39;;;;;;;30.70;4.63;;;;;;;;;;5134658;27;20127;-75
2022/04/09 11:53:12;;;;;;;22.65;4.40;;;;;;;;;;5135141;27;20050;-77
2022/04/09 11:55:39;;;;;;;26.33;4.70;;;;;;;;;;5115995;27;20055;-78
2022/04/09 11:58:06;;;;;;;19.08;4.30;;;;;;;;;;5134854;27;20050;-78
2022/04/09 12:00:35;;;;;;;16.27;4.10;;;;;;;;;;5134605;27;20429;-78
2022/04/09 12:03:04;;;;;;;25.80;4.80;;;;;;;;;;5116466;27;20428;-77
2022/04/09 12:05:37;;;;;;;23.52;5.35;;;;;;;;;;5115879;27;20142;-76
2022/04/09 12:08:13;;;;;;;20.38;4.32;;;;;;;;;;5135043;27;20394;-76
2022/04/09 12:10:51;;;;;;;42.15;5.35;;;;;;;;;;5133565;27;20393;-77
2022/04/09 12:13:23;;;;;;;49.67;6.60;;;;;;;;;;5115891;27;20043;-77
2022/04/09 12:15:50;;;;;;;49.25;6.53;;;;;;;;;;5067615;27;20044;-76
2022/04/09 12:18:26;;;;;;;69.47;8.55;;;;;;;;;;5059197;28;20036;-76
2022/04/09 12:20:52;;;;;;;52.10;7.50;;;;;;;;;;5071492;28;20447;-77
2022/04/09 12:23:28;;;;;;;49.17;7.03;;;;;;;;;;5054854;28;20634;-77
2022/04/09 12:25:54;;;;;;;50.72;7.43;;;;;;;;;;5041536;28;20103;-77
2022/04/09 12:28:22;;;;;;;63.28;7.65;;;;;;;;;;5052292;28;20099;-74
2022/04/09 12:30:48;;;;;;;52.10;6.45;;;;;;;;;;5052683;28;20073;-74
2022/04/09 12:33:14;;;;;;;51.90;6.63;;;;;;;;;;5052915;28;20488;-73
2022/04/09 12:35:41;;;;;;;50.00;6.22;;;;;;;;;;5053388;28;20071;-73
2022/04/09 12:38:07;;;;;;;34.65;4.90;;;;;;;;;;5052912;28;20412;-73
2022/04/09 12:40:33;;;;;;;31.40;5.10;;;;;;;;;;5060681;28;20491;-73
2022/04/09 12:43:00;;;;;;;37.15;5.97;;;;;;;;;;5070983;28;20112;-73
2022/04/09 12:45:27;;;;;;;31.65;4.72;;;;;;;;;;5072241;28;20131;-74
2022/04/09 12:48:05;;;;;;;27.42;4.85;;;;;;;;;;5073073;28;20051;-74
2022/04/09 12:50:35;;;;;;;33.28;4.88;;;;;;;;;;5072718;28;20123;-74
2022/04/09 12:53:07;;;;;;;28.67;4.68;;;;;;;;;;5062559;28;20032;-75
2022/04/09 12:55:34;;;;;;;21.77;4.85;;;;;;;;;;5055541;28;20045;-74
2022/04/09 12:58:03;;;;;;;22.75;3.65;;;;;;;;;;5058513;28;20392;-74
2022/04/09 13:00:32;;;;;;;22.98;4.53;;;;;;;;;;5062604;28;20052;-74
2022/04/09 13:02:58;;;;;;;17.60;3.83;;;;;;;;;;5064121;28;20102;-74
2022/04/09 13:05:24;;;;;;;23.20;3.83;;;;;;;;;;5070855;28;20041;-74
2022/04/09 13:07:50;;;;;;;11.93;3.38;;;;;;;;;;5071014;28;20048;-74
2022/04/09 13:10:16;;;;;;;20.05;3.50;;;;;;;;;;5063302;28;20092;-74
2022/04/09 13:12:42;;;;;;;14.38;3.38;;;;;;;;;;5070746;28;20048;-74
2022/04/09 13:15:09;;;;;;;18.52;3.70;;;;;;;;;;5054999;28;20076;-73
2022/04/09 13:17:35;;;;;;;16.10;3.22;;;;;;;;;;5070721;28;20044;-73
2022/04/09 13:20:02;;;;;;;12.60;2.80;;;;;;;;;;5072602;28;20043;-74
2022/04/09 13:22:28;;;;;;;16.15;3.40;;;;;;;;;;5061791;28;20037;-74
2022/04/09 13:24:54;;;;;;;13.63;3.25;;;;;;;;;;5071416;28;20036;-74
2022/04/09 13:27:20;;;;;;;14.27;3.00;;;;;;;;;;5071196;28;20052;-73
2022/04/09 13:29:46;;;;;;;13.45;2.70;;;;;;;;;;5064714;28;20052;-74
2022/04/09 13:32:13;;;;;;;15.25;3.30;;;;;;;;;;5070250;28;20048;-80
2022/04/09 13:34:39;;;;;;;13.07;2.75;;;;;;;;;;5057143;28;20047;-75
2022/04/09 13:37:05;;;;;;;16.30;3.63;;;;;;;;;;5052057;28;20037;-75
2022/04/09 13:39:31;;;;;;;10.43;2.70;;;;;;;;;;5055615;28;20045;-76
2022/04/09 13:41:57;;;;;;;9.77;2.50;;;;;;;;;;5052980;28;20052;-70
2022/04/09 13:44:23;;;;;;;10.88;2.67;;;;;;;;;;5060412;28;20044;-75
2022/04/09 13:46:50;;;;;;;11.32;3.40;;;;;;;;;;5066753;28;20443;-75
2022/04/09 13:49:16;;;;;;;11.73;2.53;;;;;;;;;;5063337;28;20091;-75
2022/04/09 13:51:42;;;;;;;11.88;2.50;;;;;;;;;;5056087;28;20068;-75
2022/04/09 13:54:08;;;;;;;12.80;2.85;;;;;;;;;;5065336;28;20048;-75
2022/04/09 13:56:34;;;;;;;14.73;3.03;;;;;;;;;;5055473;28;20118;-74
2022/04/09 13:59:00;;;;;;;12.25;2.78;;;;;;;;;;5068314;28;20049;-75
2022/04/09 14:01:26;;;;;;;10.80;2.55;;;;;;;;;;5075893;28;20131;-75
2022/04/09 14:03:52;;;;;;;8.60;2.42;;;;;;;;;;5066153;28;20468;-75
2022/04/09 14:06:21;;;;;;;9.32;2.40;;;;;;;;;;5066679;28;20044;-75
2022/04/09 14:08:47;;;;;;;5.32;2.33;;;;;;;;;;5075866;28;20049;-75
2022/04/09 14:11:14;;;;;;;9.65;2.42;;;;;;;;;;5065843;28;20400;-76
2022/04/09 14:13:40;;;;;;;8.82;2.38;;;;;;;;;;5062978;28;20047;-75
2022/04/09 14:16:06;;;;;;;7.55;2.42;;;;;;;;;;5075433;28;20044;-76
2022/04/09 14:18:32;;;;;;;8.48;2.40;;;;;;;;;;5071667;28;20040;-76
2022/04/09 14:20:59;;;;;;;9.07;2.40;;;;;;;;;;5055416;28;20131;-75
2022/04/09 14:23:27;;;;;;;8.20;2.35;;;;;;;;;;5071057;28;20040;-76
2022/04/09 14:25:53;;;;;;;7.50;2.13;;;;;;;;;;5095678;28;20163;-76
2022/04/09 14:28:24;;;;;;;5.85;2.15;;;;;;;;;;5088715;28;20127;-74
2022/04/09 14:30:50;;;;;;;6.55;2.05;;;;;;;;;;5095947;28;20066;-74
2022/04/09 14:33:18;;;;;;;5.78;1.85;;;;;;;;;;5090932;28;20048;-74
2022/04/09 14:35:44;;;;;;;5.43;2.25;;;;;;;;;;5073348;28;20487;-75
2022/04/09 14:38:10;;;;;;;4.38;2.00;;;;;;;;;;5058862;28;20059;-75
2022/04/09 14:40:36;;;;;;;4.63;2.00;;;;;;;;;;5055061;28;20041;-75
2022/04/09 14:43:02;;;;;;;8.57;2.40;;;;;;;;;;5064389;28;20056;-75
2022/04/09 14:45:28;;;;;;;6.15;1.80;;;;;;;;;;5054883;28;20443;-75
2022/04/09 14:47:55;;;;;;;4.55;1.80;;;;;;;;;;5055222;28;20055;-76
2022/04/09 14:50:21;;;;;;;5.25;1.85;;;;;;;;;;5070207;28;20098;-75
2022/04/09 14:52:47;;;;;;;5.30;1.95;;;;;;;;;;5056354;28;20041;-75
2022/04/09 14:55:16;;;;;;;3.55;1.77;;;;;;;;;;5054859;28;20106;-75
2022/04/09 14:57:42;;;;;;;6.60;2.00;;;;;;;;;;5067606;28;20492;-75
2022/04/09 15:00:13;;;;;;;5.30;2.22;;;;;;;;;;5072484;28;20053;-75
2022/04/09 15:02:43;;;;;;;4.32;1.67;;;;;;;;;;5055729;28;20052;-75
2022/04/09 15:05:10;;;;;;;5.85;1.90;;;;;;;;;;5056116;28;20052;-71
2022/04/09 15:07:36;;;;;;;5.03;1.90;;;;;;;;;;5055684;28;20048;-70
2022/04/09 15:10:03;;;;;;;4.93;1.92;;;;;;;;;;5054618;28;20048;-71
2022/04/09 15:12:30;;;;;;;6.60;2.40;;;;;;;;;;5055101;28;20060;-70
2022/04/09 15:14:56;;;;;;;5.28;2.10;;;;;;;;;;5054509;28;20128;-70
2022/04/09 15:17:22;;;;;;;5.55;2.00;;;;;;;;;;5062953;28;20445;-70
2022/04/09 15:19:48;;;;;;;4.63;1.63;;;;;;;;;;5055217;28;20505;-72
2022/04/09 15:22:14;;;;;;;5.85;1.80;;;;;;;;;;5062265;28;20048;-71
2022/04/09 15:24:40;;;;;;;3.30;1.80;;;;;;;;;;5069116;28;20040;-71
2022/04/09 15:27:06;;;;;;;4.07;1.77;;;;;;;;;;5054436;28;20084;-71
2022/04/09 15:29:32;;;;;;;3.83;1.77;;;;;;;;;;5054290;28;20049;-70
2022/04/09 15:31:59;;;;;;;4.22;1.90;;;;;;;;;;5061467;28;20037;-71
2022/04/09 15:34:25;;;;;;;4.05;1.83;;;;;;;;;;5073931;28;20063;-70
2022/04/09 15:36:51;;;;;;;4.15;1.92;;;;;;;;;;5073756;28;20434;-70
2022/04/09 15:39:17;;;;;;;3.58;1.92;;;;;;;;;;5072672;28;20040;-70
2022/04/09 15:41:43;;;;;;;4.00;1.80;;;;;;;;;;5055282;28;20052;-70
2022/04/09 15:44:09;;;;;;;4.03;1.80;;;;;;;;;;5056633;28;20044;-69
2022/04/09 15:46:35;;;;;;;6.05;2.08;;;;;;;;;;5059517;28;20492;-71
2022/04/09 15:49:01;;;;;;;3.58;1.73;;;;;;;;;;5068366;28;20041;-71
2022/04/09 15:51:27;;;;;;;3.50;1.88;;;;;;;;;;5059799;28;20068;-71
2022/04/09 15:53:55;;;;;;;4.20;1.90;;;;;;;;;;5054112;28;20049;-71
2022/04/09 15:56:22;;;;;;;4.10;1.70;;;;;;;;;;5053689;28;20056;-71
2022/04/09 15:58:48;;;;;;;3.30;1.60;;;;;;;;;;5055389;28;20136;-71
2022/04/09 16:01:14;;;;;;;6.18;2.03;;;;;;;;;;5073262;28;20044;-74
2022/04/09 16:03:40;;;;;;;5.20;2.20;;;;;;;;;;5074476;28;20491;-74
2022/04/09 16:06:06;;;;;;;6.68;1.70;;;;;;;;;;5054658;28;20048;-74
2022/04/09 16:08:32;;;;;;;5.90;1.90;;;;;;;;;;5053681;28;20049;-73
2022/04/09 16:10:59;;;;;;;6.00;1.80;;;;;;;;;;5054639;28;20476;-73
2022/04/09 16:13:26;;;;;;;4.80;1.80;;;;;;;;;;5069320;28;20045;-73
2022/04/09 16:15:52;;;;;;;4.25;1.42;;;;;;;;;;5064832;28;20041;-73
2022/04/09 16:18:18;;;;;;;5.18;1.73;;;;;;;;;;5054141;28;20053;-73
2022/04/09 16:20:45;;;;;;;7.00;1.80;;;;;;;;;;5067266;28;20036;-73
2022/04/09 16:23:11;;;;;;;5.78;1.90;;;;;;;;;;5070615;28;20047;-72
2022/04/09 16:25:37;;;;;;;3.75;1.60;;;;;;;;;;5059233;28;20131;-74
2022/04/09 16:28:04;;;;;;;6.30;1.85;;;;;;;;;;5053118;28;20049;-75
2022/04/09 16:30:31;;;;;;;3.65;2.10;;;;;;;;;;5055317;28;20051;-76
2022/04/09 16:32:57;;;;;;;2.95;1.40;;;;;;;;;;5053475;28;20129;-74
2022/04/09 16:35:24;;;;;;;4.70;1.67;;;;;;;;;;5052285;28;20048;-75
2022/04/09 16:37:50;;;;;;;4.00;1.80;;;;;;;;;;5051758;28;20049;-73
2022/04/09 16:40:20;;;;;;;5.18;1.92;;;;;;;;;;5054200;28;20056;-73
2022/04/09 16:42:46;;;;;;;7.65;1.67;;;;;;;;;;5055515;28;20045;-75
2022/04/09 16:45:12;;;;;;;3.20;1.60;;;;;;;;;;5052267;28;20045;-77
2022/04/09 16:47:38;;;;;;;6.18;1.80;;;;;;;;;;5053171;28;20052;-75
2022/04/09 16:50:04;;;;;;;3.83;1.75;;;;;;;;;;5055023;28;20048;-79
2022/04/09 16:52:30;;;;;;;4.88;1.63;;;;;;;;;;5055290;28;20045;-77
2022/04/09 16:54:57;;;;;;;4.03;1.60;;;;;;;;;;5057377;28;20511;-72
2022/04/09 16:57:23;;;;;;;4.63;1.70;;;;;;;;;;5060193;28;20554;-72
2022/04/09 16:59:49;;;;;;;5.63;1.80;;;;;;;;;;5055406;28;20399;-75
2022/04/09 17:02:14;;;;;;;7.63;2.10;;;;;;;;;;5054270;28;20132;-74